sensor_id;sensor_type;location;lat;lon;timestamp;temperature;humidity
20398;DHT22;10358;49.590;11.030;2022-08-01T00:02:12;19.70;98.90
20398;DHT22;10358;49.590;11.030;2022-08-01T00:04:38;19.80;99.00
20398;DHT22;10358;49.590;11.030;2022-08-01T00:07:03;19.80;99.40
20398;DHT22;10358;49.590;11.030;2022-08-01T00:09:29;19.80;99.30
20398;DHT22;10358;49.590;11.030;2022-08-01T00:11:54;19.80;99.40
20398;DHT22;10358;49.590;11.030;2022-08-01T00:14:20;19.80;99.60
20398;DHT22;10358;49.590;11.030;2022-08-01T00:16:46;19.70;99.80
20398;DHT22;10358;49.590;11.030;2022-08-01T00:19:11;19.70;99.90
20398;DHT22;10358;49.590;11.030;2022-08-01T00:21:37;19.70;99.90
20398;DHT22;10358;49.590;11.030;2022-08-01T00:24:02;19.60;99.90
20398;DHT22;10358;49.590;11.030;2022-08-01T00:26:28;19.60;99.90
20398;DHT22;10358;49.590;11.030;2022-08-01T00:28:53;19.60;99.90
20398;DHT22;10358;49.590;11.030;2022-08-01T00:31:19;19.50;99.90
20398;DHT22;10358;49.590;11.030;2022-08-01T00:33:45;19.50;99.90
20398;DHT22;10358;49.590;11.030;2022-08-01T00:36:10;19.50;99.90
20398;DHT22;10358;49.590;11.030;2022-08-01T00:38:36;19.50;99.90
20398;DHT22;10358;49.590;11.030;2022-08-01T00:41:01;19.50;99.90
20398;DHT22;10358;49.590;11.030;2022-08-01T00:43:27;19.50;99.90
20398;DHT22;10358;49.590;11.030;2022-08-01T00:45:52;19.50;99.90
20398;DHT22;10358;49.590;11.030;2022-08-01T00:48:18;19.50;99.90
20398;DHT22;10358;49.590;11.030;2022-08-01T00:50:43;19.40;99.90
20398;DHT22;10358;49.590;11.030;2022-08-01T00:53:10;19.40;99.90
20398;DHT22;10358;49.590;11.030;2022-08-01T00:55:35;19.40;99.90
20398;DHT22;10358;49.590;11.030;2022-08-01T00:58:01;19.40;99.90
20398;DHT22;10358;49.590;11.030;2022-08-01T01:00:26;19.40;99.90
20398;DHT22;10358;49.590;11.030;2022-08-01T01:02:52;19.30;99.90
20398;DHT22;10358;49.590;11.030;2022-08-01T01:05:18;19.30;99.90
20398;DHT22;10358;49.590;11.030;2022-08-01T01:07:58;19.20;99.90
20398;DHT22;10358;49.590;11.030;2022-08-01T01:10:45;19.30;99.90
20398;DHT22;10358;49.590;11.030;2022-08-01T01:15:49;19.10;99.90
20398;DHT22;10358;49.590;11.030;2022-08-01T01:18:35;19.10;99.90
20398;DHT22;10358;49.590;11.030;2022-08-01T01:21:13;19.00;99.90
20398;DHT22;10358;49.590;11.030;2022-08-01T01:26:21;18.90;99.90
20398;DHT22;10358;49.590;11.030;2022-08-01T01:31:32;18.90;99.90
20398;DHT22;10358;49.590;11.030;2022-08-01T01:34:03;18.90;99.90
20398;DHT22;10358;49.590;11.030;2022-08-01T01:36:30;18.90;99.90
20398;DHT22;10358;49.590;11.030;2022-08-01T01:38:58;18.90;99.90
20398;DHT22;10358;49.590;11.030;2022-08-01T01:41:25;18.90;99.90
20398;DHT22;10358;49.590;11.030;2022-08-01T01:43:52;18.90;99.90
20398;DHT22;10358;49.590;11.030;2022-08-01T01:46:22;18.90;99.90
20398;DHT22;10358;49.590;11.030;2022-08-01T01:48:49;19.00;99.90
20398;DHT22;10358;49.590;11.030;2022-08-01T01:51:15;19.10;99.90
20398;DHT22;10358;49.590;11.030;2022-08-01T01:53:41;19.10;99.90
20398;DHT22;10358;49.590;11.030;2022-08-01T01:56:09;19.10;99.90
20398;DHT22;10358;49.590;11.030;2022-08-01T01:58:35;19.10;99.90
20398;DHT22;10358;49.590;11.030;2022-08-01T02:01:05;19.10;99.90
20398;DHT22;10358;49.590;11.030;2022-08-01T02:03:32;19.10;99.90
20398;DHT22;10358;49.590;11.030;2022-08-01T02:06:02;19.10;99.90
20398;DHT22;10358;49.590;11.030;2022-08-01T02:08:29;19.00;99.90
20398;DHT22;10358;49.590;11.030;2022-08-01T02:10:57;19.00;99.90
20398;DHT22;10358;49.590;11.030;2022-08-01T02:16:17;18.80;99.90
20398;DHT22;10358;49.590;11.030;2022-08-01T02:18:44;18.80;99.90
20398;DHT22;10358;49.590;11.030;2022-08-01T02:21:13;18.80;99.90
20398;DHT22;10358;49.590;11.030;2022-08-01T02:23:40;18.80;99.90
20398;DHT22;10358;49.590;11.030;2022-08-01T02:26:14;18.70;99.90
20398;DHT22;10358;49.590;11.030;2022-08-01T02:28:46;18.60;99.90
20398;DHT22;10358;49.590;11.030;2022-08-01T02:31:14;18.60;99.90
20398;DHT22;10358;49.590;11.030;2022-08-01T02:33:44;18.60;99.90
20398;DHT22;10358;49.590;11.030;2022-08-01T02:36:11;18.60;99.90
20398;DHT22;10358;49.590;11.030;2022-08-01T02:38:41;18.60;99.90
20398;DHT22;10358;49.590;11.030;2022-08-01T02:41:09;18.60;99.90
20398;DHT22;10358;49.590;11.030;2022-08-01T02:43:42;18.60;99.90
20398;DHT22;10358;49.590;11.030;2022-08-01T02:46:11;18.60;99.90
20398;DHT22;10358;49.590;11.030;2022-08-01T02:48:41;18.60;99.90
20398;DHT22;10358;49.590;11.030;2022-08-01T02:51:08;18.60;99.90
20398;DHT22;10358;49.590;11.030;2022-08-01T02:53:37;18.60;99.90
20398;DHT22;10358;49.590;11.030;2022-08-01T02:56:05;18.50;99.90
20398;DHT22;10358;49.590;11.030;2022-08-01T02:58:32;18.50;99.90
20398;DHT22;10358;49.590;11.030;2022-08-01T03:00:59;18.50;99.90
20398;DHT22;10358;49.590;11.030;2022-08-01T03:03:25;18.40;99.90
20398;DHT22;10358;49.590;11.030;2022-08-01T03:05:52;18.40;99.90
20398;DHT22;10358;49.590;11.030;2022-08-01T03:08:18;18.40;99.90
20398;DHT22;10358;49.590;11.030;2022-08-01T03:10:45;18.30;99.90
20398;DHT22;10358;49.590;11.030;2022-08-01T03:13:13;18.20;99.90
20398;DHT22;10358;49.590;11.030;2022-08-01T03:15:42;18.10;99.90
20398;DHT22;10358;49.590;11.030;2022-08-01T03:18:09;18.00;99.90
20398;DHT22;10358;49.590;11.030;2022-08-01T03:20:36;18.00;99.90
20398;DHT22;10358;49.590;11.030;2022-08-01T03:23:04;18.00;99.90
20398;DHT22;10358;49.590;11.030;2022-08-01T03:25:31;18.00;99.90
20398;DHT22;10358;49.590;11.030;2022-08-01T03:28:01;17.90;99.90
20398;DHT22;10358;49.590;11.030;2022-08-01T03:30:28;17.90;99.90
20398;DHT22;10358;49.590;11.030;2022-08-01T03:32:55;17.80;99.90
20398;DHT22;10358;49.590;11.030;2022-08-01T03:35:23;17.80;99.90
20398;DHT22;10358;49.590;11.030;2022-08-01T03:37:55;17.80;99.90
20398;DHT22;10358;49.590;11.030;2022-08-01T03:40:24;17.80;99.90
20398;DHT22;10358;49.590;11.030;2022-08-01T03:42:56;17.80;99.90
20398;DHT22;10358;49.590;11.030;2022-08-01T03:45:25;17.80;99.90
20398;DHT22;10358;49.590;11.030;2022-08-01T03:47:59;17.80;99.90
20398;DHT22;10358;49.590;11.030;2022-08-01T03:50:27;17.70;99.90
20398;DHT22;10358;49.590;11.030;2022-08-01T03:52:54;17.70;99.90
20398;DHT22;10358;49.590;11.030;2022-08-01T03:55:23;17.60;99.90
20398;DHT22;10358;49.590;11.030;2022-08-01T03:57:50;17.50;99.90
20398;DHT22;10358;49.590;11.030;2022-08-01T04:00:16;17.40;99.90
20398;DHT22;10358;49.590;11.030;2022-08-01T04:02:48;17.40;99.90
20398;DHT22;10358;49.590;11.030;2022-08-01T04:05:15;17.30;99.90
20398;DHT22;10358;49.590;11.030;2022-08-01T04:07:45;17.30;99.90
20398;DHT22;10358;49.590;11.030;2022-08-01T04:10:12;17.40;99.90
20398;DHT22;10358;49.590;11.030;2022-08-01T04:12:38;17.40;99.90
20398;DHT22;10358;49.590;11.030;2022-08-01T04:15:04;17.40;99.90
20398;DHT22;10358;49.590;11.030;2022-08-01T04:17:30;17.40;99.90
20398;DHT22;10358;49.590;11.030;2022-08-01T04:19:56;17.40;99.90
20398;DHT22;10358;49.590;11.030;2022-08-01T04:22:21;17.50;99.90
20398;DHT22;10358;49.590;11.030;2022-08-01T04:24:49;17.50;99.90
20398;DHT22;10358;49.590;11.030;2022-08-01T04:27:21;17.60;99.90
20398;DHT22;10358;49.590;11.030;2022-08-01T04:29:48;17.60;99.90
20398;DHT22;10358;49.590;11.030;2022-08-01T04:32:16;17.70;99.90
20398;DHT22;10358;49.590;11.030;2022-08-01T04:34:44;17.70;99.90
20398;DHT22;10358;49.590;11.030;2022-08-01T04:37:12;17.70;99.90
20398;DHT22;10358;49.590;11.030;2022-08-01T04:39:42;17.70;99.90
20398;DHT22;10358;49.590;11.030;2022-08-01T04:42:09;17.70;99.90
20398;DHT22;10358;49.590;11.030;2022-08-01T04:44:36;17.80;99.90
20398;DHT22;10358;49.590;11.030;2022-08-01T04:47:03;17.90;99.90
20398;DHT22;10358;49.590;11.030;2022-08-01T04:49:32;18.10;99.90
20398;DHT22;10358;49.590;11.030;2022-08-01T04:51:59;18.20;99.90
20398;DHT22;10358;49.590;11.030;2022-08-01T04:54:29;18.30;99.90
20398;DHT22;10358;49.590;11.030;2022-08-01T04:56:55;18.40;99.90
20398;DHT22;10358;49.590;11.030;2022-08-01T04:59:28;18.50;99.90
20398;DHT22;10358;49.590;11.030;2022-08-01T05:02:17;18.60;99.90
20398;DHT22;10358;49.590;11.030;2022-08-01T05:04:44;18.70;99.90
20398;DHT22;10358;49.590;11.030;2022-08-01T05:07:10;18.70;99.90
20398;DHT22;10358;49.590;11.030;2022-08-01T05:09:37;18.70;99.90
20398;DHT22;10358;49.590;11.030;2022-08-01T05:12:04;18.80;99.90
20398;DHT22;10358;49.590;11.030;2022-08-01T05:14:31;18.80;99.90
20398;DHT22;10358;49.590;11.030;2022-08-01T05:16:58;18.90;99.90
20398;DHT22;10358;49.590;11.030;2022-08-01T05:19:24;19.00;99.90
20398;DHT22;10358;49.590;11.030;2022-08-01T05:21:50;19.20;99.90
20398;DHT22;10358;49.590;11.030;2022-08-01T05:24:16;19.20;99.90
20398;DHT22;10358;49.590;11.030;2022-08-01T05:26:42;19.30;99.90
20398;DHT22;10358;49.590;11.030;2022-08-01T05:29:07;19.40;99.90
20398;DHT22;10358;49.590;11.030;2022-08-01T05:31:33;19.50;99.90
20398;DHT22;10358;49.590;11.030;2022-08-01T05:34:01;19.50;99.90
20398;DHT22;10358;49.590;11.030;2022-08-01T05:36:27;19.60;99.90
20398;DHT22;10358;49.590;11.030;2022-08-01T05:38:52;19.70;99.90
20398;DHT22;10358;49.590;11.030;2022-08-01T05:41:18;19.70;99.90
20398;DHT22;10358;49.590;11.030;2022-08-01T05:43:43;19.80;99.90
20398;DHT22;10358;49.590;11.030;2022-08-01T05:46:09;19.90;99.90
20398;DHT22;10358;49.590;11.030;2022-08-01T05:48:35;20.10;99.90
20398;DHT22;10358;49.590;11.030;2022-08-01T05:51:00;20.20;99.90
20398;DHT22;10358;49.590;11.030;2022-08-01T05:53:26;20.30;99.90
20398;DHT22;10358;49.590;11.030;2022-08-01T05:55:52;20.40;99.90
20398;DHT22;10358;49.590;11.030;2022-08-01T05:58:21;20.50;99.90
20398;DHT22;10358;49.590;11.030;2022-08-01T06:00:46;20.60;99.90
20398;DHT22;10358;49.590;11.030;2022-08-01T06:03:15;20.70;99.90
20398;DHT22;10358;49.590;11.030;2022-08-01T06:05:40;20.80;99.90
20398;DHT22;10358;49.590;11.030;2022-08-01T06:08:06;20.90;99.90
20398;DHT22;10358;49.590;11.030;2022-08-01T06:10:32;21.00;99.90
20398;DHT22;10358;49.590;11.030;2022-08-01T06:12:57;21.20;99.90
20398;DHT22;10358;49.590;11.030;2022-08-01T06:15:23;21.30;99.90
20398;DHT22;10358;49.590;11.030;2022-08-01T06:17:49;21.40;99.90
20398;DHT22;10358;49.590;11.030;2022-08-01T06:20:15;21.50;99.90
20398;DHT22;10358;49.590;11.030;2022-08-01T06:22:40;21.50;99.90
20398;DHT22;10358;49.590;11.030;2022-08-01T06:25:07;21.60;99.90
20398;DHT22;10358;49.590;11.030;2022-08-01T06:27:53;21.70;99.90
20398;DHT22;10358;49.590;11.030;2022-08-01T06:30:19;21.70;99.90
20398;DHT22;10358;49.590;11.030;2022-08-01T06:32:48;21.70;99.90
20398;DHT22;10358;49.590;11.030;2022-08-01T06:35:14;21.80;99.90
20398;DHT22;10358;49.590;11.030;2022-08-01T06:37:43;21.70;99.90
20398;DHT22;10358;49.590;11.030;2022-08-01T06:40:12;21.70;99.90
20398;DHT22;10358;49.590;11.030;2022-08-01T06:42:38;21.70;99.90
20398;DHT22;10358;49.590;11.030;2022-08-01T06:45:05;21.60;99.90
20398;DHT22;10358;49.590;11.030;2022-08-01T06:47:31;21.60;99.90
20398;DHT22;10358;49.590;11.030;2022-08-01T06:49:57;21.60;99.90
20398;DHT22;10358;49.590;11.030;2022-08-01T06:52:23;21.60;99.90
20398;DHT22;10358;49.590;11.030;2022-08-01T06:54:48;21.60;99.90
20398;DHT22;10358;49.590;11.030;2022-08-01T06:57:14;21.70;99.90
20398;DHT22;10358;49.590;11.030;2022-08-01T06:59:40;21.70;99.90
20398;DHT22;10358;49.590;11.030;2022-08-01T07:02:06;21.80;99.90
20398;DHT22;10358;49.590;11.030;2022-08-01T07:04:33;21.80;99.90
20398;DHT22;10358;49.590;11.030;2022-08-01T07:06:58;21.80;99.90
20398;DHT22;10358;49.590;11.030;2022-08-01T07:09:24;21.90;99.90
20398;DHT22;10358;49.590;11.030;2022-08-01T07:11:49;21.90;99.90
20398;DHT22;10358;49.590;11.030;2022-08-01T07:14:18;22.10;99.90
20398;DHT22;10358;49.590;11.030;2022-08-01T07:16:44;22.10;99.90
20398;DHT22;10358;49.590;11.030;2022-08-01T07:19:09;22.20;99.90
20398;DHT22;10358;49.590;11.030;2022-08-01T07:21:35;22.30;99.90
20398;DHT22;10358;49.590;11.030;2022-08-01T07:24:00;22.30;99.90
20398;DHT22;10358;49.590;11.030;2022-08-01T07:26:26;22.30;99.90
20398;DHT22;10358;49.590;11.030;2022-08-01T07:28:52;22.30;99.90
20398;DHT22;10358;49.590;11.030;2022-08-01T07:31:18;22.20;99.90
20398;DHT22;10358;49.590;11.030;2022-08-01T07:33:44;22.20;99.90
20398;DHT22;10358;49.590;11.030;2022-08-01T07:36:10;22.20;99.90
20398;DHT22;10358;49.590;11.030;2022-08-01T07:38:35;22.20;99.90
20398;DHT22;10358;49.590;11.030;2022-08-01T07:41:01;22.20;99.90
20398;DHT22;10358;49.590;11.030;2022-08-01T07:43:27;22.30;99.90
20398;DHT22;10358;49.590;11.030;2022-08-01T07:45:53;22.50;99.90
20398;DHT22;10358;49.590;11.030;2022-08-01T07:48:18;22.60;99.90
20398;DHT22;10358;49.590;11.030;2022-08-01T07:50:46;22.70;99.10
20398;DHT22;10358;49.590;11.030;2022-08-01T07:53:11;22.70;98.70
20398;DHT22;10358;49.590;11.030;2022-08-01T07:55:37;22.80;98.50
20398;DHT22;10358;49.590;11.030;2022-08-01T07:58:02;22.90;97.70
20398;DHT22;10358;49.590;11.030;2022-08-01T08:00:28;22.90;97.20
20398;DHT22;10358;49.590;11.030;2022-08-01T08:02:54;22.90;97.30
20398;DHT22;10358;49.590;11.030;2022-08-01T08:05:20;23.00;96.70
20398;DHT22;10358;49.590;11.030;2022-08-01T08:07:45;23.10;96.40
20398;DHT22;10358;49.590;11.030;2022-08-01T08:10:11;23.10;96.30
20398;DHT22;10358;49.590;11.030;2022-08-01T08:12:37;23.20;96.00
20398;DHT22;10358;49.590;11.030;2022-08-01T08:15:03;23.20;95.40
20398;DHT22;10358;49.590;11.030;2022-08-01T08:17:31;23.30;94.70
20398;DHT22;10358;49.590;11.030;2022-08-01T08:19:57;23.50;94.40
20398;DHT22;10358;49.590;11.030;2022-08-01T08:22:23;23.70;94.00
20398;DHT22;10358;49.590;11.030;2022-08-01T08:24:48;23.90;92.90
20398;DHT22;10358;49.590;11.030;2022-08-01T08:27:14;24.00;92.00
20398;DHT22;10358;49.590;11.030;2022-08-01T08:29:40;23.90;91.10
20398;DHT22;10358;49.590;11.030;2022-08-01T08:32:07;23.80;91.10
20398;DHT22;10358;49.590;11.030;2022-08-01T08:34:33;23.80;91.00
20398;DHT22;10358;49.590;11.030;2022-08-01T08:36:59;24.00;90.60
20398;DHT22;10358;49.590;11.030;2022-08-01T08:39:25;24.30;90.00
20398;DHT22;10358;49.590;11.030;2022-08-01T08:41:51;24.30;89.40
20398;DHT22;10358;49.590;11.030;2022-08-01T08:44:17;24.00;90.20
20398;DHT22;10358;49.590;11.030;2022-08-01T08:46:48;23.90;90.30
20398;DHT22;10358;49.590;11.030;2022-08-01T08:49:20;23.80;90.40
20398;DHT22;10358;49.590;11.030;2022-08-01T08:51:48;23.70;90.70
20398;DHT22;10358;49.590;11.030;2022-08-01T08:54:17;23.70;90.50
20398;DHT22;10358;49.590;11.030;2022-08-01T08:56:44;23.80;90.50
20398;DHT22;10358;49.590;11.030;2022-08-01T08:59:12;23.90;90.40
20398;DHT22;10358;49.590;11.030;2022-08-01T09:01:39;24.20;89.90
20398;DHT22;10358;49.590;11.030;2022-08-01T09:04:05;24.50;86.80
20398;DHT22;10358;49.590;11.030;2022-08-01T09:06:32;24.70;82.90
20398;DHT22;10358;49.590;11.030;2022-08-01T09:08:58;24.80;80.60
20398;DHT22;10358;49.590;11.030;2022-08-01T09:11:23;24.80;79.30
20398;DHT22;10358;49.590;11.030;2022-08-01T09:16:31;24.90;77.30
20398;DHT22;10358;49.590;11.030;2022-08-01T09:21:36;24.60;77.50
20398;DHT22;10358;49.590;11.030;2022-08-01T09:24:02;24.60;76.20
20398;DHT22;10358;49.590;11.030;2022-08-01T09:26:32;24.60;76.10
20398;DHT22;10358;49.590;11.030;2022-08-01T09:28:58;24.60;75.90
20398;DHT22;10358;49.590;11.030;2022-08-01T09:31:28;24.80;75.20
20398;DHT22;10358;49.590;11.030;2022-08-01T09:33:58;24.90;74.50
20398;DHT22;10358;49.590;11.030;2022-08-01T09:36:26;24.80;73.70
20398;DHT22;10358;49.590;11.030;2022-08-01T09:38:54;24.90;73.90
20398;DHT22;10358;49.590;11.030;2022-08-01T09:41:29;24.90;73.90
20398;DHT22;10358;49.590;11.030;2022-08-01T09:43:56;24.80;74.00
20398;DHT22;10358;49.590;11.030;2022-08-01T09:46:22;24.80;74.10
20398;DHT22;10358;49.590;11.030;2022-08-01T09:49:14;24.90;74.20
20398;DHT22;10358;49.590;11.030;2022-08-01T09:51:52;24.90;73.10
20398;DHT22;10358;49.590;11.030;2022-08-01T09:54:28;24.90;72.90
20398;DHT22;10358;49.590;11.030;2022-08-01T09:56:54;25.00;72.90
20398;DHT22;10358;49.590;11.030;2022-08-01T09:59:36;25.10;72.70
20398;DHT22;10358;49.590;11.030;2022-08-01T10:02:03;25.00;71.30
20398;DHT22;10358;49.590;11.030;2022-08-01T10:04:29;25.00;70.80
20398;DHT22;10358;49.590;11.030;2022-08-01T10:07:04;24.90;70.50
20398;DHT22;10358;49.590;11.030;2022-08-01T10:09:34;24.80;70.70
20398;DHT22;10358;49.590;11.030;2022-08-01T10:12:00;24.70;71.70
20398;DHT22;10358;49.590;11.030;2022-08-01T10:14:28;24.70;72.10
20398;DHT22;10358;49.590;11.030;2022-08-01T10:16:57;24.90;72.20
20398;DHT22;10358;49.590;11.030;2022-08-01T10:19:25;25.10;71.60
20398;DHT22;10358;49.590;11.030;2022-08-01T10:21:53;25.30;70.80
20398;DHT22;10358;49.590;11.030;2022-08-01T10:24:23;25.50;70.40
20398;DHT22;10358;49.590;11.030;2022-08-01T10:27:02;25.80;68.30
20398;DHT22;10358;49.590;11.030;2022-08-01T10:29:36;26.00;66.30
20398;DHT22;10358;49.590;11.030;2022-08-01T10:32:04;26.00;64.80
20398;DHT22;10358;49.590;11.030;2022-08-01T10:34:31;25.80;64.20
20398;DHT22;10358;49.590;11.030;2022-08-01T10:36:59;25.80;64.10
20398;DHT22;10358;49.590;11.030;2022-08-01T10:39:25;25.90;63.90
20398;DHT22;10358;49.590;11.030;2022-08-01T10:41:54;26.00;63.50
20398;DHT22;10358;49.590;11.030;2022-08-01T10:44:20;26.10;63.40
20398;DHT22;10358;49.590;11.030;2022-08-01T10:46:49;26.20;63.20
20398;DHT22;10358;49.590;11.030;2022-08-01T10:49:17;26.10;62.30
20398;DHT22;10358;49.590;11.030;2022-08-01T10:51:45;26.00;63.20
20398;DHT22;10358;49.590;11.030;2022-08-01T10:54:12;25.90;63.50
20398;DHT22;10358;49.590;11.030;2022-08-01T10:56:46;25.90;63.90
20398;DHT22;10358;49.590;11.030;2022-08-01T10:59:28;25.80;64.30
20398;DHT22;10358;49.590;11.030;2022-08-01T11:01:59;25.80;63.90
20398;DHT22;10358;49.590;11.030;2022-08-01T11:04:55;25.80;63.10
20398;DHT22;10358;49.590;11.030;2022-08-01T11:07:23;25.80;63.00
20398;DHT22;10358;49.590;11.030;2022-08-01T11:12:46;25.80;64.40
20398;DHT22;10358;49.590;11.030;2022-08-01T11:17:41;25.60;63.40
20398;DHT22;10358;49.590;11.030;2022-08-01T11:20:17;25.60;63.30
20398;DHT22;10358;49.590;11.030;2022-08-01T11:30:48;25.60;63.40
20398;DHT22;10358;49.590;11.030;2022-08-01T11:33:15;25.70;63.00
20398;DHT22;10358;49.590;11.030;2022-08-01T11:38:41;26.00;61.90
20398;DHT22;10358;49.590;11.030;2022-08-01T11:43:58;26.30;61.70
20398;DHT22;10358;49.590;11.030;2022-08-01T11:47:00;26.50;60.20
20398;DHT22;10358;49.590;11.030;2022-08-01T11:54:30;26.80;58.10
20398;DHT22;10358;49.590;11.030;2022-08-01T11:57:00;26.90;58.00
20398;DHT22;10358;49.590;11.030;2022-08-01T11:59:26;26.90;60.10
20398;DHT22;10358;49.590;11.030;2022-08-01T12:01:52;26.70;61.10
20398;DHT22;10358;49.590;11.030;2022-08-01T12:04:18;26.50;61.40
20398;DHT22;10358;49.590;11.030;2022-08-01T12:06:44;26.30;62.10
20398;DHT22;10358;49.590;11.030;2022-08-01T12:09:20;26.10;63.00
20398;DHT22;10358;49.590;11.030;2022-08-01T12:11:47;26.10;63.20
20398;DHT22;10358;49.590;11.030;2022-08-01T12:14:17;26.10;63.10
20398;DHT22;10358;49.590;11.030;2022-08-01T12:16:53;26.20;62.50
20398;DHT22;10358;49.590;11.030;2022-08-01T12:19:20;26.20;62.50
20398;DHT22;10358;49.590;11.030;2022-08-01T12:22:07;26.10;62.70
20398;DHT22;10358;49.590;11.030;2022-08-01T12:24:34;26.10;63.50
20398;DHT22;10358;49.590;11.030;2022-08-01T12:27:00;26.00;63.90
20398;DHT22;10358;49.590;11.030;2022-08-01T12:29:40;25.90;64.10
20398;DHT22;10358;49.590;11.030;2022-08-01T12:34:50;26.00;64.20
20398;DHT22;10358;49.590;11.030;2022-08-01T12:37:16;26.10;64.30
20398;DHT22;10358;49.590;11.030;2022-08-01T12:39:43;26.40;64.20
20398;DHT22;10358;49.590;11.030;2022-08-01T12:42:09;26.70;63.80
20398;DHT22;10358;49.590;11.030;2022-08-01T12:44:36;27.10;63.10
20398;DHT22;10358;49.590;11.030;2022-08-01T12:47:05;27.30;61.50
20398;DHT22;10358;49.590;11.030;2022-08-01T12:49:32;27.10;60.60
20398;DHT22;10358;49.590;11.030;2022-08-01T12:51:58;27.20;61.30
20398;DHT22;10358;49.590;11.030;2022-08-01T12:54:24;27.40;60.80
20398;DHT22;10358;49.590;11.030;2022-08-01T12:56:51;27.70;60.40
20398;DHT22;10358;49.590;11.030;2022-08-01T12:59:28;28.00;59.30
20398;DHT22;10358;49.590;11.030;2022-08-01T13:01:56;28.20;58.30
20398;DHT22;10358;49.590;11.030;2022-08-01T13:04:22;28.30;57.60
20398;DHT22;10358;49.590;11.030;2022-08-01T13:06:52;28.20;56.90
20398;DHT22;10358;49.590;11.030;2022-08-01T13:09:18;28.20;55.90
20398;DHT22;10358;49.590;11.030;2022-08-01T13:11:44;27.90;55.30
20398;DHT22;10358;49.590;11.030;2022-08-01T13:14:27;27.70;55.60
20398;DHT22;10358;49.590;11.030;2022-08-01T13:16:52;27.90;56.00
20398;DHT22;10358;49.590;11.030;2022-08-01T13:19:18;28.00;55.50
20398;DHT22;10358;49.590;11.030;2022-08-01T13:21:54;28.20;55.20
20398;DHT22;10358;49.590;11.030;2022-08-01T13:24:28;28.60;54.80
20398;DHT22;10358;49.590;11.030;2022-08-01T13:26:55;28.90;53.50
20398;DHT22;10358;49.590;11.030;2022-08-01T13:29:35;29.10;53.40
20398;DHT22;10358;49.590;11.030;2022-08-01T13:32:17;29.30;52.80
20398;DHT22;10358;49.590;11.030;2022-08-01T13:34:43;29.80;53.00
20398;DHT22;10358;49.590;11.030;2022-08-01T13:37:08;30.10;50.60
20398;DHT22;10358;49.590;11.030;2022-08-01T13:39:34;29.90;49.60
20398;DHT22;10358;49.590;11.030;2022-08-01T13:42:07;29.60;48.80
20398;DHT22;10358;49.590;11.030;2022-08-01T13:44:32;29.30;49.30
20398;DHT22;10358;49.590;11.030;2022-08-01T13:46:58;29.10;49.00
20398;DHT22;10358;49.590;11.030;2022-08-01T13:49:24;28.80;49.30
20398;DHT22;10358;49.590;11.030;2022-08-01T13:51:49;28.60;50.10
20398;DHT22;10358;49.590;11.030;2022-08-01T13:54:16;28.50;50.50
20398;DHT22;10358;49.590;11.030;2022-08-01T13:56:41;28.40;51.00
20398;DHT22;10358;49.590;11.030;2022-08-01T13:59:07;28.40;51.20
20398;DHT22;10358;49.590;11.030;2022-08-01T14:01:33;28.50;51.20
20398;DHT22;10358;49.590;11.030;2022-08-01T14:03:59;28.60;51.00
20398;DHT22;10358;49.590;11.030;2022-08-01T14:06:25;28.70;49.00
20398;DHT22;10358;49.590;11.030;2022-08-01T14:08:50;28.80;48.00
20398;DHT22;10358;49.590;11.030;2022-08-01T14:11:16;29.20;47.60
20398;DHT22;10358;49.590;11.030;2022-08-01T14:13:43;29.20;48.00
20398;DHT22;10358;49.590;11.030;2022-08-01T14:16:08;29.20;48.80
20398;DHT22;10358;49.590;11.030;2022-08-01T14:18:34;29.40;48.70
20398;DHT22;10358;49.590;11.030;2022-08-01T14:21:00;29.70;48.20
20398;DHT22;10358;49.590;11.030;2022-08-01T14:23:26;30.40;46.10
20398;DHT22;10358;49.590;11.030;2022-08-01T14:25:51;30.90;44.40
20398;DHT22;10358;49.590;11.030;2022-08-01T14:28:17;31.00;43.00
20398;DHT22;10358;49.590;11.030;2022-08-01T14:30:43;30.80;43.20
20398;DHT22;10358;49.590;11.030;2022-08-01T14:33:10;30.50;43.20
20398;DHT22;10358;49.590;11.030;2022-08-01T14:35:36;29.90;44.40
20398;DHT22;10358;49.590;11.030;2022-08-01T14:38:01;29.50;45.10
20398;DHT22;10358;49.590;11.030;2022-08-01T14:40:27;29.20;46.00
20398;DHT22;10358;49.590;11.030;2022-08-01T14:42:53;28.90;46.40
20398;DHT22;10358;49.590;11.030;2022-08-01T14:45:18;28.70;47.10
20398;DHT22;10358;49.590;11.030;2022-08-01T14:47:44;28.50;47.50
20398;DHT22;10358;49.590;11.030;2022-08-01T14:50:12;28.50;48.80
20398;DHT22;10358;49.590;11.030;2022-08-01T14:52:39;28.70;50.20
20398;DHT22;10358;49.590;11.030;2022-08-01T14:55:07;28.70;50.40
20398;DHT22;10358;49.590;11.030;2022-08-01T14:57:34;28.70;50.70
20398;DHT22;10358;49.590;11.030;2022-08-01T15:00:00;29.20;50.10
20398;DHT22;10358;49.590;11.030;2022-08-01T15:02:26;30.10;49.00
20398;DHT22;10358;49.590;11.030;2022-08-01T15:04:51;30.60;48.00
20398;DHT22;10358;49.590;11.030;2022-08-01T15:07:18;30.90;47.70
20398;DHT22;10358;49.590;11.030;2022-08-01T15:09:44;31.00;46.90
20398;DHT22;10358;49.590;11.030;2022-08-01T15:12:11;30.90;46.90
20398;DHT22;10358;49.590;11.030;2022-08-01T15:14:37;30.70;47.50
20398;DHT22;10358;49.590;11.030;2022-08-01T15:17:18;30.80;48.00
20398;DHT22;10358;49.590;11.030;2022-08-01T15:19:45;31.50;47.70
20398;DHT22;10358;49.590;11.030;2022-08-01T15:22:11;31.70;47.10
20398;DHT22;10358;49.590;11.030;2022-08-01T15:24:37;32.10;46.60
20398;DHT22;10358;49.590;11.030;2022-08-01T15:27:02;32.40;46.00
20398;DHT22;10358;49.590;11.030;2022-08-01T15:29:28;32.40;46.20
20398;DHT22;10358;49.590;11.030;2022-08-01T15:31:53;32.30;45.40
20398;DHT22;10358;49.590;11.030;2022-08-01T15:34:21;32.10;45.70
20398;DHT22;10358;49.590;11.030;2022-08-01T15:36:47;32.00;46.00
20398;DHT22;10358;49.590;11.030;2022-08-01T15:39:12;31.80;46.20
20398;DHT22;10358;49.590;11.030;2022-08-01T15:41:38;31.60;46.40
20398;DHT22;10358;49.590;11.030;2022-08-01T15:44:03;31.50;46.60
20398;DHT22;10358;49.590;11.030;2022-08-01T15:46:29;31.30;46.60
20398;DHT22;10358;49.590;11.030;2022-08-01T15:48:55;31.00;46.40
20398;DHT22;10358;49.590;11.030;2022-08-01T15:51:20;30.90;46.90
20398;DHT22;10358;49.590;11.030;2022-08-01T15:53:46;30.90;46.70
20398;DHT22;10358;49.590;11.030;2022-08-01T15:56:12;30.90;46.50
20398;DHT22;10358;49.590;11.030;2022-08-01T15:58:38;30.80;46.40
20398;DHT22;10358;49.590;11.030;2022-08-01T16:01:04;30.30;47.00
20398;DHT22;10358;49.590;11.030;2022-08-01T16:03:29;30.00;47.80